sensor_id;sensor_type;location;lat;lon;timestamp;P1;durP1;ratioP1;P2;durP2;ratioP2
363;SDS011;173;48.718;9.274;2023-06-22T10:04:54;6.80;;;5.90;;
363;SDS011;173;48.718;9.274;2023-06-22T10:07:28;7.50;;;6.30;;
363;SDS011;173;48.718;9.274;2023-06-22T10:10:00;8.60;;;6.30;;
363;SDS011;173;48.718;9.274;2023-06-22T10:12:33;7.45;;;6.75;;
363;SDS011;173;48.718;9.274;2023-06-22T10:15:06;7.00;;;6.10;;
363;SDS011;173;48.718;9.274;2023-06-22T10:17:39;7.75;;;6.85;;
363;SDS011;173;48.718;9.274;2023-06-22T10:20:13;7.00;;;6.30;;
363;SDS011;173;48.718;9.274;2023-06-22T10:22:46;7.10;;;6.00;;
363;SDS011;173;48.718;9.274;2023-06-22T10:25:18;7.65;;;6.50;;
363;SDS011;173;48.718;9.274;2023-06-22T10:27:52;7.30;;;6.60;;
363;SDS011;173;48.718;9.274;2023-06-22T10:30:24;7.20;;;6.50;;
363;SDS011;173;48.718;9.274;2023-06-22T10:32:56;9.00;;;6.10;;
363;SDS011;173;48.718;9.274;2023-06-22T10:35:28;7.20;;;6.50;;
363;SDS011;173;48.718;9.274;2023-06-22T10:38:00;7.15;;;6.45;;
363;SDS011;173;48.718;9.274;2023-06-22T10:40:32;8.80;;;6.20;;
363;SDS011;173;48.718;9.274;2023-06-22T10:43:05;9.90;;;6.35;;
363;SDS011;173;48.718;9.274;2023-06-22T10:45:37;11.70;;;7.70;;
363;SDS011;173;48.718;9.274;2023-06-22T10:48:09;7.50;;;6.10;;
363;SDS011;173;48.718;9.274;2023-06-22T10:50:41;11.40;;;8.45;;
363;SDS011;173;48.718;9.274;2023-06-22T10:53:14;7.65;;;6.85;;
363;SDS011;173;48.718;9.274;2023-06-22T10:55:47;7.30;;;6.60;;
363;SDS011;173;48.718;9.274;2023-06-22T10:58:20;7.30;;;6.70;;
363;SDS011;173;48.718;9.274;2023-06-22T11:00:52;8.95;;;8.20;;
363;SDS011;173;48.718;9.274;2023-06-22T11:03:25;9.40;;;7.10;;
363;SDS011;173;48.718;9.274;2023-06-22T11:05:57;7.85;;;5.90;;
363;SDS011;173;48.718;9.274;2023-06-22T11:08:29;6.75;;;6.05;;
363;SDS011;173;48.718;9.274;2023-06-22T11:11:01;7.20;;;6.50;;
363;SDS011;173;48.718;9.274;2023-06-22T11:13:33;9.55;;;6.35;;
363;SDS011;173;48.718;9.274;2023-06-22T11:16:05;6.80;;;6.20;;
363;SDS011;173;48.718;9.274;2023-06-22T11:18:37;8.00;;;7.20;;
363;SDS011;173;48.718;9.274;2023-06-22T11:21:08;9.45;;;6.20;;
363;SDS011;173;48.718;9.274;2023-06-22T11:23:41;10.65;;;7.00;;
363;SDS011;173;48.718;9.274;2023-06-22T11:26:14;8.75;;;6.70;;
363;SDS011;173;48.718;9.274;2023-06-22T11:28:47;6.60;;;5.90;;
363;SDS011;173;48.718;9.274;2023-06-22T11:31:19;8.20;;;5.75;;
363;SDS011;173;48.718;9.274;2023-06-22T11:33:51;7.70;;;6.90;;
363;SDS011;173;48.718;9.274;2023-06-22T11:36:23;9.70;;;5.90;;
363;SDS011;173;48.718;9.274;2023-06-22T11:38:57;7.30;;;6.50;;
363;SDS011;173;48.718;9.274;2023-06-22T11:41:30;9.40;;;6.40;;
363;SDS011;173;48.718;9.274;2023-06-22T11:44:02;9.30;;;6.80;;
363;SDS011;173;48.718;9.274;2023-06-22T11:46:34;13.10;;;6.70;;
363;SDS011;173;48.718;9.274;2023-06-22T11:49:07;7.85;;;6.75;;
363;SDS011;173;48.718;9.274;2023-06-22T11:51:39;9.70;;;7.00;;
363;SDS011;173;48.718;9.274;2023-06-22T11:54:11;10.10;;;6.55;;
363;SDS011;173;48.718;9.274;2023-06-22T11:56:43;8.10;;;6.50;;
363;SDS011;173;48.718;9.274;2023-06-22T11:59:15;7.50;;;6.60;;
363;SDS011;173;48.718;9.274;2023-06-22T12:01:48;9.50;;;6.65;;
363;SDS011;173;48.718;9.274;2023-06-22T12:04:20;8.50;;;6.40;;
363;SDS011;173;48.718;9.274;2023-06-22T12:06:52;10.90;;;6.70;;
363;SDS011;173;48.718;9.274;2023-06-22T12:09:24;7.05;;;6.30;;
363;SDS011;173;48.718;9.274;2023-06-22T12:11:56;7.10;;;6.40;;
363;SDS011;173;48.718;9.274;2023-06-22T12:14:28;16.20;;;6.70;;
363;SDS011;173;48.718;9.274;2023-06-22T12:17:00;8.35;;;5.80;;
363;SDS011;173;48.718;9.274;2023-06-22T12:19:33;7.10;;;6.40;;
363;SDS011;173;48.718;9.274;2023-06-22T12:22:05;8.80;;;6.60;;
363;SDS011;173;48.718;9.274;2023-06-22T12:24:37;6.30;;;5.30;;
363;SDS011;173;48.718;9.274;2023-06-22T12:27:09;8.70;;;5.90;;
363;SDS011;173;48.718;9.274;2023-06-22T12:29:42;7.90;;;5.65;;
363;SDS011;173;48.718;9.274;2023-06-22T12:32:17;8.10;;;6.10;;
363;SDS011;173;48.718;9.274;2023-06-22T12:34:49;6.70;;;5.50;;
363;SDS011;173;48.718;9.274;2023-06-22T12:37:21;8.90;;;6.70;;
363;SDS011;173;48.718;9.274;2023-06-22T12:39:55;6.20;;;5.60;;
363;SDS011;173;48.718;9.274;2023-06-22T12:42:27;6.85;;;6.15;;
363;SDS011;173;48.718;9.274;2023-06-22T12:44:59;8.50;;;6.70;;
363;SDS011;173;48.718;9.274;2023-06-22T12:47:31;8.40;;;5.70;;
363;SDS011;173;48.718;9.274;2023-06-22T12:50:03;9.70;;;6.80;;
363;SDS011;173;48.718;9.274;2023-06-22T12:52:36;6.90;;;5.40;;
363;SDS011;173;48.718;9.274;2023-06-22T12:55:09;7.45;;;6.20;;
363;SDS011;173;48.718;9.274;2023-06-22T12:57:41;6.80;;;6.10;;
363;SDS011;173;48.718;9.274;2023-06-22T13:00:15;7.90;;;6.20;;
363;SDS011;173;48.718;9.274;2023-06-22T13:02:48;6.60;;;5.90;;
363;SDS011;173;48.718;9.274;2023-06-22T13:05:20;7.20;;;5.90;;
363;SDS011;173;48.718;9.274;2023-06-22T13:07:52;9.10;;;6.60;;
363;SDS011;173;48.718;9.274;2023-06-22T14:52:54;6.90;;;5.70;;
363;SDS011;173;48.718;9.274;2023-06-22T14:55:34;7.15;;;4.50;;
363;SDS011;173;48.718;9.274;2023-06-22T14:58:06;9.70;;;6.50;;
363;SDS011;173;48.718;9.274;2023-06-22T15:00:39;10.70;;;4.80;;
363;SDS011;173;48.718;9.274;2023-06-22T15:03:11;6.30;;;3.70;;
363;SDS011;173;48.718;9.274;2023-06-22T15:05:45;7.80;;;4.60;;
363;SDS011;173;48.718;9.274;2023-06-22T15:08:45;7.45;;;4.75;;
363;SDS011;173;48.718;9.274;2023-06-22T15:12:07;6.10;;;4.20;;
363;SDS011;173;48.718;9.274;2023-06-22T15:14:42;7.60;;;3.90;;
363;SDS011;173;48.718;9.274;2023-06-22T15:17:14;6.70;;;3.80;;
363;SDS011;173;48.718;9.274;2023-06-22T15:19:46;7.70;;;3.70;;
363;SDS011;173;48.718;9.274;2023-06-22T15:22:18;7.73;;;3.90;;
363;SDS011;173;48.718;9.274;2023-06-22T15:24:50;9.45;;;4.35;;
363;SDS011;173;48.718;9.274;2023-06-22T15:27:24;10.05;;;4.80;;
363;SDS011;173;48.718;9.274;2023-06-22T15:29:56;8.50;;;4.50;;
363;SDS011;173;48.718;9.274;2023-06-22T15:32:29;9.30;;;4.25;;
363;SDS011;173;48.718;9.274;2023-06-22T15:35:01;7.30;;;3.40;;
363;SDS011;173;48.718;9.274;2023-06-22T15:37:33;13.20;;;5.00;;
363;SDS011;173;48.718;9.274;2023-06-22T15:40:06;6.00;;;4.10;;
363;SDS011;173;48.718;9.274;2023-06-22T15:42:38;6.70;;;4.35;;
363;SDS011;173;48.718;9.274;2023-06-22T15:45:11;7.50;;;4.30;;
363;SDS011;173;48.718;9.274;2023-06-22T15:47:43;7.60;;;3.90;;
363;SDS011;173;48.718;9.274;2023-06-22T15:50:15;8.05;;;3.95;;
363;SDS011;173;48.718;9.274;2023-06-22T15:52:50;6.30;;;3.90;;
363;SDS011;173;48.718;9.274;2023-06-22T15:55:22;7.40;;;4.50;;
363;SDS011;173;48.718;9.274;2023-06-22T15:57:56;6.00;;;3.60;;
363;SDS011;173;48.718;9.274;2023-06-22T16:00:28;5.40;;;3.50;;
363;SDS011;173;48.718;9.274;2023-06-22T16:03:00;6.40;;;3.70;;
363;SDS011;173;48.718;9.274;2023-06-22T16:05:31;7.50;;;3.80;;
363;SDS011;173;48.718;9.274;2023-06-22T16:08:08;9.05;;;3.50;;
363;SDS011;173;48.718;9.274;2023-06-22T16:10:40;7.93;;;4.00;;
363;SDS011;173;48.718;9.274;2023-06-22T16:13:12;12.80;;;5.15;;
363;SDS011;173;48.718;9.274;2023-06-22T16:15:44;6.05;;;3.10;;
363;SDS011;173;48.718;9.274;2023-06-22T16:18:16;6.60;;;4.00;;
363;SDS011;173;48.718;9.274;2023-06-22T16:20:48;6.20;;;4.20;;
363;SDS011;173;48.718;9.274;2023-06-22T16:23:20;9.60;;;4.00;;
363;SDS011;173;48.718;9.274;2023-06-22T16:25:52;5.50;;;4.40;;
363;SDS011;173;48.718;9.274;2023-06-22T16:28:24;4.53;;;4.10;;
363;SDS011;173;48.718;9.274;2023-06-22T16:30:55;5.20;;;4.55;;
363;SDS011;173;48.718;9.274;2023-06-22T16:33:27;7.65;;;3.85;;
363;SDS011;173;48.718;9.274;2023-06-22T16:35:59;5.20;;;4.00;;
363;SDS011;173;48.718;9.274;2023-06-22T16:38:31;7.60;;;4.20;;
363;SDS011;173;48.718;9.274;2023-06-22T16:41:03;7.50;;;3.90;;
363;SDS011;173;48.718;9.274;2023-06-22T16:46:16;6.05;;;3.85;;
363;SDS011;173;48.718;9.274;2023-06-22T16:48:51;6.00;;;3.95;;
363;SDS011;173;48.718;9.274;2023-06-22T16:51:23;8.40;;;3.90;;
363;SDS011;173;48.718;9.274;2023-06-22T16:53:55;5.70;;;3.40;;
363;SDS011;173;48.718;9.274;2023-06-22T16:56:27;6.10;;;3.40;;
363;SDS011;173;48.718;9.274;2023-06-22T16:59:00;5.20;;;3.80;;
363;SDS011;173;48.718;9.274;2023-06-22T17:01:32;5.60;;;3.50;;
363;SDS011;173;48.718;9.274;2023-06-22T17:04:08;6.10;;;3.90;;
363;SDS011;173;48.718;9.274;2023-06-22T17:06:43;7.20;;;3.35;;
363;SDS011;173;48.718;9.274;2023-06-22T17:09:26;6.65;;;3.90;;
363;SDS011;173;48.718;9.274;2023-06-22T17:11:59;8.00;;;4.00;;
363;SDS011;173;48.718;9.274;2023-06-22T17:14:32;7.90;;;4.00;;
363;SDS011;173;48.718;9.274;2023-06-22T17:17:06;5.90;;;3.30;;
363;SDS011;173;48.718;9.274;2023-06-22T17:19:44;6.90;;;3.10;;
363;SDS011;173;48.718;9.274;2023-06-22T17:22:17;5.65;;;3.50;;
363;SDS011;173;48.718;9.274;2023-06-22T17:24:50;3.95;;;3.40;;
363;SDS011;173;48.718;9.274;2023-06-22T17:27:28;4.20;;;3.10;;
363;SDS011;173;48.718;9.274;2023-06-22T17:35:31;5.10;;;3.40;;
363;SDS011;173;48.718;9.274;2023-06-22T17:38:20;8.75;;;3.00;;
